ADDS METAR Data INFO
IDs: Format: Raw Decoded Include TAF

Data at: 0347 UTC 19 Feb 2018

KIPJ 190345Z AUTO 00000KT 10SM OVC048 10/03 A3036 RMK AO2 T00970029
KIPJ 190325Z AUTO 00000KT 10SM OVC048 09/04 A3037 RMK AO2 T00910040
KIPJ 190305Z AUTO 00000KT 10SM OVC048 09/03 A3036 RMK AO2 T00870034
KIPJ 190245Z AUTO 00000KT 10SM OVC048 09/03 A3036 RMK AO2 T00880032
KIPJ 190225Z AUTO 00000KT 10SM OVC048 09/04 A3035 RMK AO2 T00900035
KIPJ 190205Z AUTO 00000KT 10SM OVC048 09/03 A3036 RMK AO2 T00910031
KIPJ 190145Z AUTO 00000KT 10SM OVC048 09/03 A3035 RMK AO2 T00880032
KIPJ 190125Z AUTO 00000KT 10SM BKN048 09/03 A3034 RMK AO2 T00860029
KIPJ 190105Z AUTO 00000KT 10SM SCT050 08/02 A3034 RMK AO2 T00820021
KIPJ 190045Z AUTO 00000KT 10SM CLR 09/02 A3034 RMK AO2 T00850018
KIPJ 190025Z AUTO 00000KT 10SM CLR 09/02 A3033 RMK AO2 T00910015
KIPJ 190005Z AUTO 00000KT 10SM CLR 11/01 A3033 RMK AO2 T01100005
KIPJ 182345Z AUTO 00000KT 10SM CLR 12/01 A3033 RMK AO2 T01190005
KIPJ 182325Z AUTO 00000KT 10SM CLR 13/00 A3033 RMK AO2 T01270000
KIPJ 182305Z AUTO 00000KT 10SM CLR 15/M01 A3031 RMK AO2 T01461010
KIPJ 182245Z AUTO 08004KT 10SM CLR 15/M01 A3031 RMK AO2 T01521008
KIPJ 182225Z AUTO 08004KT 10SM CLR 15/M01 A3030 RMK AO2 T01541012
KIPJ 182205Z AUTO 08005KT 10SM CLR 16/M01 A3030 RMK AO2 T01611011
KIPJ 182145Z AUTO 10004KT 10SM CLR 16/M01 A3029 RMK AO2 T01601011
KIPJ 182125Z AUTO 08006KT 060V140 10SM CLR 16/M01 A3029 RMK AO2 T01621011
KIPJ 182105Z AUTO 10004KT 10SM CLR 16/M01 A3030 RMK AO2 T01591011
KIPJ 182045Z AUTO 00000KT 10SM CLR 16/M01 A3030 RMK AO2 T01611009
KIPJ 182025Z AUTO 10006KT 10SM CLR 16/M01 A3030 RMK AO2 T01601014
KIPJ 182005Z AUTO 10005KT 10SM CLR 16/M02 A3030 RMK AO2 T01581019
KIPJ 181945Z AUTO 10005KT 10SM CLR 15/M02 A3030 RMK AO2 T01531020
KIPJ 181925Z AUTO 11006KT 10SM CLR 15/M01 A3031 RMK AO2 T01521015
KIPJ 181905Z AUTO 06006KT 10SM CLR 15/00 A3031 RMK AO2 T01521005
KIPJ 181845Z AUTO 08007KT 040V190 10SM CLR 15/00 A3032 RMK AO2 T01500000
KIPJ 181825Z AUTO 12004KT 10SM CLR 15/M02 A3033 RMK AO2 T01501016
KIPJ 181805Z AUTO 07007KT 10SM CLR 15/M02 A3033 RMK AO2 T01471016
KIPJ 181745Z AUTO 07006KT 050V110 10SM CLR 14/M01 A3034 RMK AO2 T01441008
KIPJ 181725Z AUTO 06005KT 10SM CLR 15/M01 A3034 RMK AO2 T01451008
KIPJ 181705Z AUTO 06006KT 10SM CLR 14/00 A3035 RMK AO2 T01370001
KIPJ 181645Z AUTO 09008KT 10SM CLR 14/02 A3034 RMK AO2 T01360017
KIPJ 181625Z AUTO 09006KT 10SM CLR 13/02 A3034 RMK AO2 T01300019
KIPJ 181605Z AUTO 06004KT 10SM CLR 13/03 A3034 RMK AO2 T01290031
KIPJ 181545Z AUTO 00000KT 10SM CLR 12/05 A3033 RMK AO2 T01190046
KIPJ 181525Z AUTO 09003KT 10SM CLR 11/06 A3033 RMK AO2 T01100056
KIPJ 181505Z AUTO 10004KT 10SM CLR 10/06 A3032 RMK AO2 T01000060
KIPJ 181445Z AUTO 10003KT 10SM CLR 09/07 A3031 RMK AO2 T00890066
KIPJ 181425Z AUTO 00000KT 10SM CLR 08/08 A3030 RMK AO2 T00790079
KIPJ 181405Z AUTO 00000KT 10SM 07/07 A3028 RMK AO2 T00670067
KIPJ 181345Z AUTO 00000KT 10SM 06/06 A3027 RMK AO2 T00590059
KIPJ 181325Z AUTO 00000KT 1/4SM FG 05/05 A3026 RMK AO2 T00480048
KIPJ 181305Z AUTO 00000KT 1/2SM FG OVC002 05/05 A3025 RMK AO2 T00450045
KIPJ 181245Z AUTO 00000KT M1/4SM FG OVC002 04/04 A3024 RMK AO2 T00410041
KIPJ 181225Z AUTO 00000KT M1/4SM FG OVC002 04/04 A3022 RMK AO2 T00430043
KIPJ 181205Z AUTO 00000KT 1/4SM FG OVC002 05/05 A3021 RMK AO2 T00480048
KIPJ 181145Z AUTO 00000KT 1/4SM FG OVC002 05/05 A3021 RMK AO2 T00500050
KIPJ 181125Z AUTO 00000KT 1/4SM FG OVC002 05/05 A3020 RMK AO2 T00470047
KIPJ 181105Z AUTO 00000KT 1/4SM FG OVC002 05/05 A3019 RMK AO2 T00500050
KIPJ 181045Z AUTO 00000KT 1/4SM FG OVC002 05/05 A3018 RMK AO2 T00530053
KIPJ 181025Z AUTO 00000KT 1/4SM FG OVC002 06/06 A3017 RMK AO2 T00550055
KIPJ 181005Z AUTO 00000KT 1/4SM FG OVC002 06/06 A3016 RMK AO2 T00550055
KIPJ 180945Z AUTO 00000KT 1/4SM FG OVC002 06/06 A3015 RMK AO2 T00560056
KIPJ 180925Z AUTO 00000KT 1/4SM FG OVC002 06/06 A3014 RMK AO2 T00550055
KIPJ 180905Z AUTO 00000KT 1/2SM FG OVC002 06/06 A3013 RMK AO2 T00590059
KIPJ 180845Z AUTO 00000KT 3/4SM BR OVC002 06/06 A3013 RMK AO2 T00600060
KIPJ 180825Z AUTO 00000KT 1/2SM FG OVC002 06/06 A3012 RMK AO2 T00610061
KIPJ 180805Z AUTO 00000KT 1SM BR OVC002 06/06 A3012 RMK AO2 T00610061
KIPJ 180745Z AUTO 00000KT 2SM BR OVC002 06/06 A3011 RMK AO2 T00600060
KIPJ 180725Z AUTO 00000KT 4SM BR OVC002 06/06 A3011 RMK AO2 T00600060
KIPJ 180705Z AUTO 00000KT 5SM BR OVC004 06/06 A3010 RMK AO2 T00620062
KIPJ 180645Z AUTO 00000KT 5SM BR OVC004 06/06 A3011 RMK AO2 T00610061
KIPJ 180625Z AUTO 00000KT 5SM BR BKN004 06/06 A3011 RMK AO2 T00610061
KIPJ 180605Z AUTO 00000KT 7SM BKN004 07/06 A3010 RMK AO2 T00650063
KIPJ 180545Z AUTO 00000KT 7SM OVC004 07/07 A3011 RMK AO2 T00660065
KIPJ 180525Z AUTO 00000KT 7SM BKN004 07/07 A3010 RMK AO2 T00660065
KIPJ 180505Z AUTO 00000KT 7SM SCT004 BKN010 07/07 A3011 RMK AO2 T00650065
KIPJ 180445Z AUTO 00000KT 10SM SCT004 OVC010 07/06 A3011 RMK AO2 T00660063
KIPJ 180425Z AUTO 00000KT 10SM OVC004 07/07 A3011 RMK AO2 T00670065
KIPJ 180405Z AUTO 00000KT 7SM OVC004 07/07 A3011 RMK AO2 T00670067
KIPJ 180345Z AUTO 11003KT 7SM OVC004 07/07 A3010 RMK AO2 T00660066
KIPJ 180325Z AUTO 36004KT 4SM BR OVC004 07/07 A3013 RMK AO2 T00670067
KIPJ 180305Z AUTO 00000KT 3SM BR OVC004 07/07 A3009 RMK AO2 T00670066
KIPJ 180245Z AUTO 03004KT 5SM -DZ OVC004 07/07 A3011 RMK AO2 T00680065
KIPJ 180225Z AUTO 00000KT 7SM OVC006 07/07 A3011 RMK AO2 T00680065
KIPJ 180205Z AUTO 02003KT 10SM OVC006 07/06 A3010 RMK AO2 T00680062
KIPJ 180145Z AUTO 36003KT 10SM OVC006 07/07 A3009 RMK AO2 T00700065
KIPJ 180125Z AUTO 01003KT 10SM OVC006 07/07 A3009 RMK AO2 T00700065
KIPJ 180105Z AUTO 00000KT 10SM OVC006 07/07 A3009 RMK AO2 T00700065
KIPJ 180045Z AUTO 00000KT 10SM OVC006 07/07 A3010 RMK AO2 T00730070
KIPJ 180025Z AUTO 00000KT 10SM OVC006 08/07 A3008 RMK AO2 T00750070
KIPJ 180005Z AUTO 02004KT 10SM OVC006 08/07 A3009 RMK AO2 T00750070
KIPJ 172345Z AUTO 02004KT 10SM OVC004 08/07 A3008 RMK AO2 T00750072
KIPJ 172325Z AUTO 00000KT 7SM BKN004 OVC020 08/07 A3008 RMK AO2 T00750072
KIPJ 172305Z AUTO 14003KT 10SM SCT004 OVC020 08/07 A3006 RMK AO2 T00750068
KIPJ 172245Z AUTO 00000KT 10SM SCT004 BKN008 OVC022 08/07 A3008 RMK AO2 T00750071
KIPJ 172225Z AUTO 00000KT 10SM SCT004 BKN008 OVC022 08/07 A3009 RMK AO2 T00750070
KIPJ 172205Z AUTO 00000KT 10SM SCT004 BKN017 OVC024 08/07 A3010 RMK AO2 T00750070
KIPJ 172145Z AUTO 11003KT 5SM -DZ BKN006 OVC026 07/07 A3009 RMK AO2 T00740069
KIPJ 172125Z AUTO 00000KT 5SM DZ OVC006 07/07 A3010 RMK AO2 T00740067
KIPJ 172105Z AUTO 00000KT 5SM DZ BKN006 OVC012 08/07 A3011 RMK AO2 T00750068
KIPJ 172045Z AUTO 00000KT 7SM DZ OVC006 08/07 A3011 RMK AO2 T00750068
KIPJ 172025Z AUTO 00000KT 10SM -DZ OVC006 08/07 A3010 RMK AO2 T00750065
KIPJ 172005Z AUTO 00000KT 7SM DZ BKN006 OVC022 07/07 A3011 RMK AO2 T00730065
KIPJ 171945Z AUTO 00000KT 4SM RA BKN004 OVC009 07/06 A3013 RMK AO2 P0001 T00710064
KIPJ 171925Z AUTO 00000KT 4SM DZ OVC006 07/06 A3013 RMK AO2 T00700062
KIPJ 171905Z AUTO 00000KT 4SM DZ BKN006 OVC010 07/06 A3014 RMK AO2 T00700061
KIPJ 171845Z AUTO 00000KT 4SM DZ BKN006 OVC013 07/06 A3014 RMK AO2 T00690058
KIPJ 171825Z AUTO 03003KT 3SM +DZ SCT008 OVC015 07/06 A3015 RMK AO2 T00700056
KIPJ 171805Z AUTO 03005KT 7SM DZ OVC017 08/05 A3016 RMK AO2 T00750049
KIPJ 171745Z AUTO 02005KT 7SM OVC019 08/04 A3017 RMK AO2 T00800040
KIPJ 171725Z AUTO 03005KT 10SM OVC023 09/03 A3018 RMK AO2 T00870033
KIPJ 171705Z AUTO 08004KT 10SM OVC025 09/03 A3018 RMK AO2 T00890031
KIPJ 171645Z AUTO 07005KT 10SM OVC027 09/03 A3020 RMK AO2 T00920029
KIPJ 171625Z AUTO 05005KT 10SM OVC027 09/03 A3021 RMK AO2 T00910029
KIPJ 171605Z AUTO 05004KT 10SM BKN027 OVC038 09/03 A3022 RMK AO2 T00870027